Terminal Aerodrome Forecast
Issued by NWS

Home | Current Version | Previous Version | Text Only | Print | Product List | Glossary On
Versions: 1 2 3 4 5 6 7 8 9 10 11 12 13 14 15 16
000
FTAK31 PAJN 181100
TAFAYA
TAF
PAYA 181137Z 1812/1912 10003KT 6SM -SHRA BKN015 OVC025
     FM181800 11006KT P6SM -SHRA BKN025 OVC050
     FM182100 12007KT P6SM VCSH SCT035 BKN070
     FM190300 VRB03KT P6SM SCT070
     FM190900 00000KT P6SM FEW120
      AMD LTD TO CLD VIS AND WIND 1901/1910=

USA.gov is the U.S. government's official web portal to all federal, state and local government web resources and services.